Time;durP1;ratioP1;P1;durP2;ratioP2;P2;SDS_P1;SDS_P2;PMS_P1;PMS_P2;Temp;Humidity;BMP_temperature;BMP_pressure;BME280_temperature;BME280_humidity;BME280_pressure;Samples;Min_cycle;Max_cycle;Signal;HPM_P1;HPM_P2
2022/04/06 00:01:53;;;;;;;17.58;10.00;;;7.60;53.20;;;;;;5050980;28;20059;-73
2022/04/06 00:04:20;;;;;;;19.85;10.27;;;7.60;53.30;;;;;;5051622;28;20060;-73
2022/04/06 00:06:46;;;;;;;18.20;10.85;;;7.50;53.30;;;;;;5051194;28;20048;-72
2022/04/06 00:09:12;;;;;;;16.05;9.55;;;7.60;53.40;;;;;;5052438;28;20134;-72
2022/04/06 00:11:38;;;;;;;13.55;7.82;;;7.50;53.60;;;;;;5052254;28;20112;-73
2022/04/06 00:14:04;;;;;;;13.65;6.80;;;7.40;53.80;;;;;;5051391;28;20128;-73
2022/04/06 00:16:31;;;;;;;11.82;6.85;;;7.30;54.10;;;;;;5050875;28;20033;-74
2022/04/06 00:18:57;;;;;;;15.30;8.88;;;7.20;54.20;;;;;;5051179;28;20033;-72
2022/04/06 00:21:25;;;;;;;21.45;11.68;;;7.20;54.20;;;;;;5052209;28;20112;-73
2022/04/06 00:23:51;;;;;;;20.50;11.40;;;7.20;54.10;;;;;;5051346;28;20035;-73
2022/04/06 00:26:17;;;;;;;23.48;12.13;;;7.20;54.30;;;;;;5050690;28;20127;-72
2022/04/06 00:28:44;;;;;;;16.05;9.02;;;7.10;53.80;;;;;;5067984;28;20406;-72
2022/04/06 00:31:10;;;;;;;10.38;5.90;;;7.10;54.50;;;;;;5067577;28;20402;-73
2022/04/06 00:33:36;;;;;;;10.10;5.60;;;7.00;54.70;;;;;;5068004;28;20429;-72
2022/04/06 00:36:02;;;;;;;10.73;5.78;;;7.00;54.70;;;;;;5052287;28;20116;-73
2022/04/06 00:38:28;;;;;;;12.32;6.15;;;7.00;54.70;;;;;;5052372;28;20120;-72
2022/04/06 00:40:55;;;;;;;12.57;6.07;;;7.00;54.50;;;;;;5069573;28;20533;-73
2022/04/06 00:43:21;;;;;;;11.52;6.28;;;6.90;54.60;;;;;;5071239;28;20512;-72
2022/04/06 00:45:47;;;;;;;;;;;7.00;54.40;;;;;;5071273;28;20036;-72
2022/04/06 00:48:13;;;;;;;11.88;6.47;;;6.90;53.70;;;;;;5071065;28;19912;-73
2022/04/06 00:50:42;;;;;;;12.10;6.38;;;6.90;54.20;;;;;;5063578;28;20029;-73
2022/04/06 00:53:09;;;;;;;12.80;6.28;;;6.80;54.20;;;;;;5051193;28;20560;-73
2022/04/06 00:55:55;;;;;;;11.30;5.97;;;6.80;54.50;;;;;;5050478;28;20409;-72
2022/04/06 00:58:21;;;;;;;13.93;7.40;;;6.80;54.40;;;;;;5050913;28;20115;-73
2022/04/06 01:00:47;;;;;;;9.73;5.82;;;6.80;54.90;;;;;;5050584;28;20021;-73
2022/04/06 01:03:14;;;;;;;14.15;6.80;;;6.80;54.90;;;;;;5051008;28;20059;-73
2022/04/06 01:05:40;;;;;;;11.95;6.15;;;6.70;54.90;;;;;;5051622;28;20057;-72
2022/04/06 01:08:07;;;;;;;10.95;6.47;;;6.70;55.00;;;;;;5050938;28;20037;-72
2022/04/06 01:10:34;;;;;;;13.90;7.05;;;6.70;55.10;;;;;;5050467;28;20116;-73
2022/04/06 01:13:00;;;;;;;13.10;6.93;;;6.70;55.10;;;;;;5051049;28;20230;-72
2022/04/06 01:15:27;;;;;;;;;;;6.70;55.00;;;;;;5052172;28;20045;-73
2022/04/06 01:17:53;;;;;;;10.02;5.50;;;6.60;53.90;;;;;;5052461;28;19921;-72
2022/04/06 01:20:19;;;;;;;11.20;6.07;;;6.60;54.70;;;;;;5050197;28;20493;-72
2022/04/06 01:22:45;;;;;;;;;;;6.60;54.40;;;;;;5055034;28;20472;-73
2022/04/06 01:25:12;;;;;;;11.10;6.68;;;6.60;54.30;;;;;;5054091;28;19913;-72
2022/04/06 01:27:38;;;;;;;;;;;6.50;54.80;;;;;;5056262;28;20448;-72
2022/04/06 01:30:05;;;;;;;11.20;5.85;;;6.50;54.50;;;;;;5037716;28;19912;-72
2022/04/06 01:32:35;;;;;;;10.75;5.50;;;6.40;54.80;;;;;;5054409;28;20037;-73
2022/04/06 01:35:03;;;;;;;8.55;4.45;;;6.50;55.10;;;;;;5054349;28;20108;-72
2022/04/06 01:37:31;;;;;;;9.15;5.30;;;6.40;54.90;;;;;;5054001;28;20068;-72
2022/04/06 01:39:57;;;;;;;8.40;5.00;;;6.40;55.00;;;;;;5054278;28;20075;-72
2022/04/06 01:42:23;;;;;;;8.82;5.47;;;6.30;55.00;;;;;;5053831;28;20091;-73
2022/04/06 01:44:51;;;;;;;11.75;5.78;;;6.30;55.10;;;;;;5054289;28;20036;-72
2022/04/06 01:47:19;;;;;;;9.35;5.22;;;6.20;55.00;;;;;;5053764;28;20090;-73
2022/04/06 01:52:32;;;;;;;10.97;5.33;;;6.20;55.10;;;;;;5074830;28;20071;-73
2022/04/06 01:55:18;;;;;;;10.50;5.20;;;6.10;55.00;;;;;;5057185;28;20078;-72
2022/04/06 01:57:45;;;;;;;10.93;5.03;;;6.00;55.10;;;;;;5074089;28;20140;-73
2022/04/06 02:00:30;;;;;;;8.95;4.85;;;6.00;55.10;;;;;;5073620;28;20109;-73
2022/04/06 02:02:56;;;;;;;9.07;5.05;;;6.00;55.20;;;;;;5075549;28;20119;-72
2022/04/06 02:05:23;;;;;;;10.35;5.30;;;6.00;55.10;;;;;;5074794;28;20431;-72
2022/04/06 02:07:50;;;;;;;10.10;5.05;;;5.90;55.20;;;;;;5073625;28;20143;-74
2022/04/06 02:10:18;;;;;;;10.05;5.50;;;5.90;55.20;;;;;;5073282;28;20033;-73
2022/04/06 02:12:45;;;;;;;9.00;5.45;;;5.90;55.20;;;;;;5073859;28;20087;-72
2022/04/06 02:15:14;;;;;;;9.90;5.68;;;5.90;55.30;;;;;;5073254;28;20024;-73
2022/04/06 02:17:42;;;;;;;9.15;4.47;;;5.90;55.50;;;;;;5056995;28;20037;-73
2022/04/06 02:20:09;;;;;;;10.52;5.20;;;5.80;55.30;;;;;;5056408;28;20555;-73
2022/04/06 02:22:36;;;;;;;9.30;5.22;;;5.70;55.30;;;;;;5073538;28;20037;-72
2022/04/06 02:25:02;;;;;;;;;;;5.70;54.80;;;;;;5075169;28;20035;-72
2022/04/06 02:27:28;;;;;;;10.15;4.75;;;5.70;54.80;;;;;;5072832;28;19924;-73
2022/04/06 02:29:54;;;;;;;9.27;5.20;;;5.70;55.90;;;;;;5074592;28;20090;-72
2022/04/06 02:32:21;;;;;;;11.80;6.30;;;5.60;55.30;;;;;;5072684;28;20041;-73
2022/04/06 02:34:47;;;;;;;10.88;5.18;;;5.60;55.40;;;;;;5074557;28;20040;-72
2022/04/06 02:37:13;;;;;;;11.35;5.15;;;5.60;55.60;;;;;;5072595;28;20048;-72
2022/04/06 02:39:40;;;;;;;11.85;6.18;;;5.60;55.80;;;;;;5056396;28;20028;-73
2022/04/06 02:42:06;;;;;;;;;;;5.50;55.60;;;;;;5073291;28;20048;-72
2022/04/06 02:44:33;;;;;;;9.07;5.25;;;5.50;55.40;;;;;;5074361;28;20388;-72
2022/04/06 02:46:59;;;;;;;9.80;4.97;;;5.50;55.60;;;;;;5074075;28;20048;-73
2022/04/06 02:49:25;;;;;;;;;;;5.40;56.40;;;;;;5073529;28;20029;-73
2022/04/06 02:51:52;;;;;;;15.80;5.95;;;5.40;55.50;;;;;;5055738;28;19956;-73
2022/04/06 02:54:18;;;;;;;11.25;5.82;;;5.40;55.50;;;;;;5052931;28;20486;-72
2022/04/06 02:56:45;;;;;;;;;;;5.40;56.10;;;;;;5069619;28;20127;-73
2022/04/06 02:59:12;;;;;;;11.50;5.50;;;5.40;55.60;;;;;;5086056;28;19912;-73
2022/04/06 03:01:38;;;;;;;10.38;5.22;;;5.40;56.00;;;;;;5052273;28;20120;-72
2022/04/06 03:04:04;;;;;;;10.48;5.43;;;5.40;56.20;;;;;;5069241;28;20083;-73
2022/04/06 03:06:30;;;;;;;10.93;5.20;;;5.40;56.30;;;;;;5053772;28;20120;-72
2022/04/06 03:08:56;;;;;;;11.57;5.13;;;5.40;56.40;;;;;;5054111;28;20192;-72
2022/04/06 03:11:23;;;;;;;10.52;5.65;;;5.40;56.50;;;;;;5053389;28;20121;-72
2022/04/06 03:13:50;;;;;;;10.80;5.03;;;5.40;56.60;;;;;;5052570;28;20033;-73
2022/04/06 03:16:17;;;;;;;8.18;4.90;;;5.30;56.10;;;;;;5052075;28;20067;-72
2022/04/06 03:18:43;;;;;;;8.35;4.45;;;5.30;56.70;;;;;;5052380;28;20082;-72
2022/04/06 03:21:09;;;;;;;9.45;5.45;;;5.30;56.90;;;;;;5051988;28;20375;-72
2022/04/06 03:23:35;;;;;;;9.95;5.45;;;5.30;56.90;;;;;;5053605;28;20088;-72
2022/04/06 03:26:01;;;;;;;;;;;5.30;56.90;;;;;;5036030;28;20041;-72
2022/04/06 03:28:28;;;;;;;10.35;5.47;;;5.20;56.30;;;;;;5085715;28;19943;-72
2022/04/06 03:30:54;;;;;;;11.35;5.60;;;5.20;56.70;;;;;;5051863;28;20079;-73
2022/04/06 03:33:20;;;;;;;12.85;6.82;;;5.20;57.00;;;;;;5053411;28;20113;-72
2022/04/06 03:35:46;;;;;;;13.65;6.28;;;5.10;57.20;;;;;;5034996;28;20033;-72
2022/04/06 03:38:12;;;;;;;30.17;15.68;;;5.10;57.30;;;;;;5053586;28;20033;-72
2022/04/06 03:40:39;;;;;;;15.85;9.38;;;5.10;57.50;;;;;;5051443;28;21053;-73
2022/04/06 03:43:05;;;;;;;17.20;7.82;;;5.00;57.40;;;;;;5053029;28;20041;-72
2022/04/06 03:45:31;;;;;;;12.18;6.45;;;5.10;57.60;;;;;;5050930;28;20036;-73
2022/04/06 03:47:57;;;;;;;11.90;6.40;;;5.10;57.60;;;;;;5052114;28;20041;-72
2022/04/06 03:50:23;;;;;;;15.02;6.65;;;5.00;57.60;;;;;;5057193;28;20116;-72
2022/04/06 03:52:49;;;;;;;10.75;5.88;;;4.90;58.00;;;;;;5071619;28;20076;-72
2022/04/06 03:55:16;;;;;;;13.13;6.10;;;4.80;58.20;;;;;;5072543;28;20028;-72
2022/04/06 03:57:42;;;;;;;12.20;6.45;;;4.80;58.40;;;;;;5071805;28;20064;-73
2022/04/06 04:00:09;;;;;;;12.40;6.60;;;4.80;58.50;;;;;;5071287;28;20029;-73
2022/04/06 04:02:36;;;;;;;16.27;7.80;;;4.70;58.60;;;;;;5071735;28;20055;-72
2022/04/06 04:05:03;;;;;;;13.23;6.68;;;4.80;58.70;;;;;;5071517;28;20032;-73
2022/04/06 04:07:31;;;;;;;14.82;6.43;;;4.60;58.20;;;;;;5072954;28;20481;-72
2022/04/06 04:09:58;;;;;;;8.77;5.13;;;4.50;58.00;;;;;;5071519;28;20024;-73
2022/04/06 04:12:24;;;;;;;;;;;4.40;57.80;;;;;;5071690;28;20044;-73
2022/04/06 04:14:50;;;;;;;12.55;5.97;;;4.30;58.10;;;;;;5071544;28;19916;-72
2022/04/06 04:17:16;;;;;;;11.70;5.85;;;4.30;58.00;;;;;;5072335;28;20083;-73
2022/04/06 04:19:42;;;;;;;10.95;6.32;;;4.30;58.10;;;;;;5071561;28;20036;-72
2022/04/06 04:22:09;;;;;;;10.07;5.25;;;4.30;58.00;;;;;;5054372;28;20037;-72
2022/04/06 04:24:35;;;;;;;11.23;6.25;;;4.30;57.80;;;;;;5072646;28;20036;-72
2022/04/06 04:27:01;;;;;;;15.00;5.90;;;4.30;57.90;;;;;;5072275;28;20088;-73
2022/04/06 04:29:28;;;;;;;12.82;5.68;;;4.20;58.00;;;;;;5071363;28;20062;-72
2022/04/06 04:31:54;;;;;;;11.20;6.32;;;4.20;58.20;;;;;;5070846;28;20037;-72
2022/04/06 04:34:20;;;;;;;13.45;6.68;;;4.20;58.00;;;;;;5072546;28;20056;-73
2022/04/06 04:36:46;;;;;;;15.07;7.40;;;4.20;57.80;;;;;;5070668;28;20044;-72
2022/04/06 04:39:12;;;;;;;13.57;7.15;;;4.20;57.80;;;;;;5071143;28;20092;-73
2022/04/06 04:41:39;;;;;;;11.50;6.70;;;4.20;57.90;;;;;;5063930;28;20032;-73
2022/04/06 04:44:05;;;;;;;;;;;4.20;57.80;;;;;;5052920;28;20058;-73
2022/04/06 04:46:31;;;;;;;14.57;6.45;;;4.30;57.40;;;;;;5052026;28;19920;-73
2022/04/06 04:48:57;;;;;;;12.02;6.40;;;4.20;57.40;;;;;;5052295;28;20029;-72
2022/04/06 04:51:23;;;;;;;16.73;6.97;;;4.30;57.60;;;;;;5046789;28;20367;-72
2022/04/06 04:53:49;;;;;;;13.43;7.68;;;4.30;57.60;;;;;;5067615;28;20120;-73
2022/04/06 04:56:16;;;;;;;12.13;7.18;;;4.30;57.70;;;;;;5073273;28;20047;-72
2022/04/06 04:58:43;;;;;;;15.07;7.78;;;4.30;57.20;;;;;;5076291;28;20024;-73
2022/04/06 05:01:09;;;;;;;;;;;4.40;57.70;;;;;;5075118;28;20052;-73
2022/04/06 05:03:35;;;;;;;15.95;7.28;;;4.40;57.20;;;;;;5076229;28;20322;-73
2022/04/06 05:06:01;;;;;;;12.30;7.65;;;4.40;57.40;;;;;;5074628;28;20051;-73
2022/04/06 05:08:27;;;;;;;29.35;13.20;;;4.40;57.60;;;;;;5074850;28;20032;-72
2022/04/06 05:10:53;;;;;;;17.90;9.85;;;4.40;57.70;;;;;;5075350;28;20044;-73
2022/04/06 05:13:20;;;;;;;14.52;7.72;;;4.40;57.90;;;;;;5074864;28;20095;-73
2022/04/06 05:15:47;;;;;;;14.88;7.75;;;4.50;58.10;;;;;;5074357;28;20031;-72
2022/04/06 05:18:13;;;;;;;16.25;8.77;;;4.50;58.30;;;;;;5074649;28;20083;-72
2022/04/06 05:20:40;;;;;;;15.73;8.43;;;4.50;58.40;;;;;;5074091;28;20032;-72
2022/04/06 05:23:07;;;;;;;15.32;8.02;;;4.50;58.40;;;;;;5074488;28;20082;-72
2022/04/06 05:25:32;;;;;;;;;;;4.60;58.70;;;;;;5074661;28;20029;-73
2022/04/06 05:27:59;;;;;;;13.73;8.52;;;4.60;58.10;;;;;;5075756;28;19985;-73
2022/04/06 05:30:26;;;;;;;24.95;12.35;;;4.60;57.80;;;;;;5074017;28;20033;-72
2022/04/06 05:32:55;;;;;;;54.83;20.65;;;4.60;58.40;;;;;;5074598;28;20037;-73
2022/04/06 05:35:25;;;;;;;88.70;29.65;;;4.70;58.70;;;;;;5057113;28;20059;-73
2022/04/06 05:37:52;;;;;;;120.45;36.25;;;4.80;58.80;;;;;;5075907;28;20044;-73
2022/04/06 05:40:20;;;;;;;60.63;21.42;;;4.80;58.90;;;;;;5073658;28;20103;-72
2022/04/06 05:42:47;;;;;;;26.45;11.45;;;4.90;59.20;;;;;;5074369;28;20036;-73
2022/04/06 05:45:14;;;;;;;18.85;10.80;;;4.90;58.90;;;;;;5070300;28;20028;-73
2022/04/06 05:47:42;;;;;;;18.30;9.23;;;5.00;59.00;;;;;;5054277;28;20043;-72
2022/04/06 05:50:10;;;;;;;43.33;17.10;;;5.10;59.50;;;;;;5057507;28;20024;-73
2022/04/06 05:52:36;;;;;;;42.85;18.48;;;5.10;59.50;;;;;;5075681;28;20045;-72
2022/04/06 05:55:04;;;;;;;45.97;19.38;;;5.20;59.50;;;;;;5057218;28;20195;-73
2022/04/06 05:57:30;;;;;;;35.50;17.02;;;5.30;59.30;;;;;;5073881;28;20090;-73
2022/04/06 05:59:56;;;;;;;;;;;5.40;59.50;;;;;;5074541;28;20516;-73
2022/04/06 06:05:07;;;;;;;21.35;10.75;;;5.60;59.10;;;;;;5073732;28;20027;-73
2022/04/06 06:07:34;;;;;;;20.23;11.35;;;5.70;58.70;;;;;;5056478;28;20044;-72
2022/04/06 06:10:02;;;;;;;22.80;11.43;;;5.80;59.30;;;;;;5073790;28;20529;-72
2022/04/06 06:12:29;;;;;;;24.92;13.20;;;5.90;59.10;;;;;;5057066;28;20477;-73
2022/04/06 06:14:55;;;;;;;26.33;14.82;;;6.00;59.20;;;;;;5074870;28;20025;-72
2022/04/06 06:17:21;;;;;;;34.75;17.15;;;6.10;59.70;;;;;;5073071;28;20047;-72
2022/04/06 06:19:48;;;;;;;27.42;15.90;;;6.20;59.70;;;;;;5074953;28;20027;-73
2022/04/06 06:22:14;;;;;;;26.00;12.50;;;6.30;59.50;;;;;;5056503;28;20048;-72
2022/04/06 06:24:40;;;;;;;21.38;11.77;;;6.50;59.50;;;;;;5056750;28;20028;-73
2022/04/06 06:27:06;;;;;;;19.30;9.63;;;6.60;59.30;;;;;;5073802;28;20053;-73
2022/04/06 06:29:33;;;;;;;16.20;10.13;;;6.70;59.10;;;;;;5074798;28;20060;-73
2022/04/06 06:32:00;;;;;;;17.65;9.93;;;6.90;59.20;;;;;;5073015;28;20044;-73
2022/04/06 06:34:26;;;;;;;18.15;10.27;;;7.00;59.10;;;;;;5073326;28;20049;-74
2022/04/06 06:36:52;;;;;;;20.58;11.45;;;7.10;59.90;;;;;;5072945;28;20037;-72
2022/04/06 06:39:18;;;;;;;17.27;10.70;;;7.30;59.20;;;;;;5074365;28;20032;-72
2022/04/06 06:41:45;;;;;;;18.98;10.52;;;7.40;59.10;;;;;;5072881;28;20063;-72
2022/04/06 06:44:11;;;;;;;18.02;10.40;;;7.50;59.00;;;;;;5073185;28;20033;-73
2022/04/06 06:46:37;;;;;;;15.10;9.13;;;7.70;59.10;;;;;;5073854;28;20044;-73
2022/04/06 06:49:04;;;;;;;15.82;8.55;;;7.80;58.90;;;;;;5074634;28;20059;-73
2022/04/06 06:51:31;;;;;;;;;;;7.90;58.70;;;;;;5069676;28;20036;-73
2022/04/06 06:54:19;;;;;;;14.45;8.07;;;8.00;58.00;;;;;;5052942;28;19939;-73
2022/04/06 06:56:44;;;;;;;;;;;8.20;59.50;;;;;;5054541;28;20123;-72
2022/04/06 06:59:11;;;;;;;16.75;7.80;;;8.30;58.00;;;;;;5053116;28;19920;-73
2022/04/06 07:01:37;;;;;;;12.10;6.80;;;8.40;58.60;;;;;;5052293;28;20037;-73
2022/04/06 07:04:03;;;;;;;13.88;7.72;;;8.50;58.30;;;;;;5036235;28;20112;-73
2022/04/06 07:06:29;;;;;;;14.30;8.30;;;8.70;58.20;;;;;;5052208;28;20059;-73
2022/04/06 07:08:55;;;;;;;16.42;8.43;;;8.80;58.50;;;;;;5052551;28;20030;-73
2022/04/06 07:11:21;;;;;;;13.50;7.85;;;8.90;58.30;;;;;;5053549;28;20061;-73
2022/04/06 07:13:48;;;;;;;13.77;7.28;;;9.10;57.70;;;;;;5052471;28;20029;-73
2022/04/06 07:16:15;;;;;;;13.35;6.93;;;9.30;57.10;;;;;;5052183;28;20045;-73
2022/04/06 07:18:42;;;;;;;24.95;13.77;;;9.50;56.70;;;;;;5052615;28;20074;-74
2022/04/06 07:21:08;;;;;;;22.70;12.13;;;9.60;56.30;;;;;;5052097;28;20052;-73
2022/04/06 07:23:34;;;;;;;;;;;9.90;55.90;;;;;;5052964;28;20401;-73
2022/04/06 07:26:00;;;;;;;12.13;7.25;;;10.40;55.90;;;;;;5035178;28;19927;-74
2022/04/06 07:28:27;;;;;;;11.27;6.60;;;10.90;54.90;;;;;;5052247;28;20057;-73
2022/04/06 07:30:53;;;;;;;13.57;7.43;;;11.50;54.90;;;;;;5051885;28;20032;-73
2022/04/06 07:33:19;;;;;;;12.88;6.55;;;12.20;54.70;;;;;;5035531;28;20378;-74
2022/04/06 07:35:46;;;;;;;14.02;7.57;;;12.90;55.10;;;;;;5052858;28;20044;-73
2022/04/06 07:38:14;;;;;;;10.70;6.25;;;13.60;53.80;;;;;;5051968;28;20029;-73
2022/04/06 07:40:41;;;;;;;12.02;6.18;;;14.30;52.90;;;;;;5051529;28;20427;-73
2022/04/06 07:43:08;;;;;;;11.43;7.00;;;15.00;51.00;;;;;;5035622;28;20059;-73
2022/04/06 07:45:35;;;;;;;11.55;6.45;;;15.70;49.00;;;;;;5052778;28;20448;-74
2022/04/06 07:48:02;;;;;;;;;;;16.40;48.20;;;;;;5052397;28;20037;-73
2022/04/06 07:50:28;;;;;;;10.90;4.60;;;17.10;50.80;;;;;;5057840;28;20273;-74
2022/04/06 07:52:54;;;;;;;;;;;17.90;45.80;;;;;;5072505;28;20044;-73
2022/04/06 07:55:21;;;;;;;8.10;4.65;;;18.60;47.90;;;;;;5064587;28;20358;-73
2022/04/06 07:57:47;;;;;;;15.15;5.25;;;19.10;42.10;;;;;;5051884;28;20095;-73
2022/04/06 08:00:16;;;;;;;19.45;5.00;;;19.80;39.90;;;;;;5051354;28;20021;-74
2022/04/06 08:02:44;;;;;;;9.15;4.90;;;20.30;37.70;;;;;;5051848;28;20033;-74
2022/04/06 08:05:10;;;;;;;7.60;3.83;;;20.90;36.20;;;;;;5052421;28;20052;-73
2022/04/06 08:07:39;;;;;;;7.68;3.92;;;21.60;34.30;;;;;;5051578;28;20079;-73
2022/04/06 08:10:28;;;;;;;8.80;4.00;;;22.20;33.30;;;;;;5051404;28;20033;-74
2022/04/06 08:12:54;;;;;;;7.65;3.97;;;22.70;32.60;;;;;;5053184;28;20037;-74
2022/04/06 08:15:20;;;;;;;;;;;23.30;30.90;;;;;;5052777;28;20033;-74
2022/04/06 08:17:48;;;;;;;7.03;4.00;;;24.00;33.50;;;;;;5052973;28;19928;-74
2022/04/06 08:20:17;;;;;;;9.02;4.47;;;24.60;29.20;;;;;;5051015;28;20021;-74
2022/04/06 08:22:45;;;;;;;7.10;4.15;;;25.20;27.70;;;;;;5053171;28;20053;-75
2022/04/06 08:25:14;;;;;;;6.72;3.38;;;25.80;26.50;;;;;;5034285;28;20033;-74
2022/04/06 08:27:41;;;;;;;5.55;2.83;;;26.50;25.60;;;;;;5034626;28;20575;-75
2022/04/06 08:30:10;;;;;;;7.07;3.97;;;27.20;24.50;;;;;;5050709;28;20032;-74
2022/04/06 08:32:37;;;;;;;6.45;3.70;;;27.50;23.20;;;;;;5051421;28;20044;-74
2022/04/06 08:35:05;;;;;;;7.30;3.80;;;28.00;23.00;;;;;;5051124;28;20441;-74
2022/04/06 08:37:33;;;;;;;7.20;3.72;;;28.60;21.80;;;;;;5051089;28;20037;-73
2022/04/06 08:39:59;;;;;;;6.53;3.40;;;28.90;20.80;;;;;;5051165;28;20029;-74
2022/04/06 08:42:31;;;;;;;7.05;3.53;;;29.30;21.00;;;;;;5050751;28;20044;-74
2022/04/06 08:44:57;;;;;;;5.18;3.03;;;29.70;20.30;;;;;;5051284;28;20458;-75
2022/04/06 08:47:24;;;;;;;6.78;3.90;;;30.30;19.80;;;;;;5050613;28;20127;-74
2022/04/06 08:49:50;;;;;;;6.38;2.95;;;30.80;18.70;;;;;;5035716;28;20116;-74
2022/04/06 08:52:18;;;;;;;8.85;3.28;;;31.30;18.50;;;;;;5070625;28;20047;-73
2022/04/06 08:54:45;;;;;;;7.63;3.55;;;31.90;18.30;;;;;;5072361;28;20028;-74
2022/04/06 08:57:12;;;;;;;6.50;2.80;;;32.40;17.60;;;;;;5070760;28;20052;-74
2022/04/06 08:59:38;;;;;;;5.93;3.38;;;33.10;16.70;;;;;;5070937;28;20096;-74
2022/04/06 09:02:04;;;;;;;7.15;3.55;;;33.80;16.20;;;;;;5070726;28;20119;-74
2022/04/06 09:04:35;;;;;;;6.55;3.70;;;34.20;15.60;;;;;;5071051;28;20115;-74
2022/04/06 09:07:21;;;;;;;6.35;3.17;;;34.50;15.10;;;;;;5070705;28;20067;-74
2022/04/06 09:10:06;;;;;;;;;;;35.30;15.10;;;;;;5054799;28;20501;-74
2022/04/06 09:12:32;;;;;;;7.65;2.78;;;35.90;16.20;;;;;;5070902;28;19927;-73
2022/04/06 09:15:23;;;;;;;9.20;3.92;;;36.50;14.10;;;;;;5070912;28;20044;-74
2022/04/06 09:17:52;;;;;;;5.95;2.60;;;36.70;14.30;;;;;;5070998;28;20040;-74
2022/04/06 09:20:24;;;;;;;8.50;3.05;;;36.80;13.30;;;;;;5071604;28;20032;-73
2022/04/06 09:22:51;;;;;;;8.13;3.03;;;37.10;13.10;;;;;;5072579;28;20086;-74
2022/04/06 09:25:20;;;;;;;4.90;2.47;;;37.70;11.90;;;;;;5070332;28;20033;-74
2022/04/06 09:27:46;;;;;;;6.70;2.67;;;38.10;11.70;;;;;;5070715;28;20460;-74
2022/04/06 09:30:13;;;;;;;5.13;2.42;;;38.20;11.20;;;;;;5070302;28;20124;-74
2022/04/06 09:33:19;;;;;;;4.78;2.38;;;38.90;11.20;;;;;;5071006;28;20040;-73
2022/04/06 09:35:46;;;;;;;5.90;2.78;;;39.30;12.00;;;;;;5070381;28;20029;-74
2022/04/06 09:38:33;;;;;;;8.98;3.88;;;39.90;10.70;;;;;;5070674;28;20505;-74
2022/04/06 09:41:19;;;;;;;7.63;3.03;;;40.40;10.20;;;;;;5071389;28;20048;-75
2022/04/06 09:43:47;;;;;;;4.97;2.80;;;40.60;10.60;;;;;;5073953;28;20056;-74
2022/04/06 09:49:28;;;;;;;9.48;3.47;;;40.80;10.50;;;;;;5074396;28;20105;-74
2022/04/06 09:51:54;;;;;;;6.82;2.60;;;41.30;10.30;;;;;;5055296;28;20044;-74
2022/04/06 09:54:23;;;;;;;5.00;2.83;;;42.00;9.80;;;;;;5054090;28;20402;-74
2022/04/06 09:56:54;;;;;;;9.77;2.97;;;42.40;8.70;;;;;;5053605;28;20040;-74
2022/04/06 09:59:20;;;;;;;7.97;2.97;;;42.50;8.80;;;;;;5059163;28;20076;-74
2022/04/06 10:02:08;;;;;;;4.95;2.90;;;43.10;9.10;;;;;;5073574;28;20032;-74
2022/04/06 10:04:35;;;;;;;5.60;2.70;;;43.60;9.10;;;;;;5073899;28;20530;-74
2022/04/06 10:07:03;;;;;;;6.40;3.08;;;44.20;8.50;;;;;;5073219;28;20040;-74
2022/04/06 10:09:30;;;;;;;7.05;3.90;;;44.20;7.50;;;;;;5073854;28;20401;-74
2022/04/06 10:11:58;;;;;;;6.93;3.20;;;44.30;7.40;;;;;;5056597;28;20136;-74
2022/04/06 10:14:25;;;;;;;8.30;4.03;;;44.10;8.10;;;;;;5073750;28;20082;-74
2022/04/06 10:16:52;;;;;;;7.13;4.15;;;43.90;7.80;;;;;;5073297;28;20043;-74
2022/04/06 10:19:22;;;;;;;7.65;3.83;;;43.70;7.20;;;;;;5073517;28;20428;-74
2022/04/06 10:22:17;;;;;;;9.45;4.30;;;43.90;7.70;;;;;;5073297;28;20119;-74
2022/04/06 10:25:10;;;;;;;7.68;4.80;;;44.40;7.70;;;;;;5074774;28;20033;-74
2022/04/06 10:27:42;;;;;;;7.45;3.78;;;44.00;7.80;;;;;;5073407;28;20063;-74
2022/04/06 10:30:31;;;;;;;7.45;4.03;;;44.20;7.30;;;;;;5073005;28;20058;-74
2022/04/06 10:32:58;;;;;;;6.18;3.85;;;44.50;7.20;;;;;;5075154;28;20040;-74
2022/04/06 10:35:28;;;;;;;6.50;3.38;;;45.10;7.70;;;;;;5074004;28;20036;-74
2022/04/06 10:37:58;;;;;;;8.82;4.05;;;44.90;6.80;;;;;;5074881;28;20032;-74
2022/04/06 10:40:43;;;;;;;6.70;3.90;;;44.70;7.30;;;;;;5072737;28;20028;-74
2022/04/06 10:43:38;;;;;;;6.70;3.42;;;45.40;7.40;;;;;;5074453;28;20089;-75
2022/04/06 10:46:09;;;;;;;7.45;3.67;;;46.10;7.50;;;;;;5072575;28;20550;-74
2022/04/06 10:49:15;;;;;;;10.23;4.90;;;46.10;7.00;;;;;;5073002;28;20115;-75
2022/04/06 10:52:23;;;;;;;7.15;4.53;;;46.20;7.10;;;;;;5057384;28;20568;-74
2022/04/06 10:54:51;;;;;;;8.20;4.70;;;46.20;6.60;;;;;;5054018;28;20036;-74
2022/04/06 10:57:19;;;;;;;6.65;3.80;;;46.50;6.70;;;;;;5052553;28;20041;-74
2022/04/06 11:00:20;;;;;;;7.85;4.18;;;45.90;6.50;;;;;;5036302;28;20040;-74
2022/04/06 11:02:52;;;;;;;9.07;3.88;;;46.00;7.30;;;;;;5052761;28;20033;-74
2022/04/06 11:05:56;;;;;;;6.68;3.85;;;45.90;6.60;;;;;;5053594;28;20175;-74
2022/04/06 11:12:22;;;;;;;6.40;3.38;;;45.60;7.30;;;;;;5052474;28;20444;-74
2022/04/06 11:15:08;;;;;;;5.88;3.65;;;45.50;7.40;;;;;;5052596;28;20477;-74
2022/04/06 11:17:54;;;;;;;6.72;3.22;;;45.40;6.80;;;;;;5054046;28;20045;-74
2022/04/06 11:20:31;;;;;;;6.65;3.38;;;46.00;7.00;;;;;;5051825;28;20053;-74
2022/04/06 11:22:58;;;;;;;5.82;3.55;;;47.20;6.90;;;;;;5052593;28;20033;-74
2022/04/06 11:25:30;;;;;;;6.85;3.30;;;47.50;6.20;;;;;;5051883;28;20096;-74
2022/04/06 11:28:13;;;;;;;7.32;3.92;;;47.40;6.00;;;;;;5052295;28;20075;-74
2022/04/06 11:30:44;;;;;;;9.00;4.45;;;48.10;6.30;;;;;;5051850;28;20083;-75
2022/04/06 11:33:10;;;;;;;6.03;3.47;;;47.90;6.00;;;;;;5052298;28;20066;-74
2022/04/06 11:35:38;;;;;;;6.40;3.47;;;47.30;6.40;;;;;;5034840;28;20032;-74
2022/04/06 11:38:07;;;;;;;5.78;3.15;;;47.30;6.40;;;;;;5052127;28;20075;-74
2022/04/06 11:40:37;;;;;;;6.60;3.50;;;47.90;5.70;;;;;;5051685;28;20398;-75
2022/04/06 11:45:51;;;;;;;5.38;3.28;;;48.60;6.30;;;;;;5052786;28;20036;-74
2022/04/06 11:48:17;;;;;;;7.18;3.30;;;49.60;5.90;;;;;;5053165;28;20095;-74
2022/04/06 11:50:44;;;;;;;7.15;4.22;;;49.60;5.30;;;;;;5059940;28;20028;-74
2022/04/06 11:53:30;;;;;;;7.30;3.38;;;49.70;5.50;;;;;;5071904;28;20116;-75
2022/04/06 11:55:57;;;;;;;7.35;5.15;;;48.70;6.30;;;;;;5071181;28;20043;-74
2022/04/06 11:58:43;;;;;;;8.05;5.00;;;48.20;6.10;;;;;;5072921;28;20147;-74
2022/04/06 12:01:40;;;;;;;7.68;4.75;;;47.60;6.20;;;;;;5072488;28;20090;-74
2022/04/06 12:04:25;;;;;;;8.32;3.80;;;47.90;5.70;;;;;;5071681;28;20119;-74
2022/04/06 12:06:53;;;;;;;6.72;4.43;;;48.50;5.90;;;;;;5054358;28;20119;-74
2022/04/06 12:09:39;;;;;;;7.88;4.80;;;48.70;5.50;;;;;;5071610;28;20067;-74
2022/04/06 12:12:05;;;;;;;;;;;48.30;6.00;;;;;;5073107;28;20115;-74
2022/04/06 12:14:36;;;;;;;5.88;3.67;;;48.40;6.40;;;;;;5071603;28;20004;-74
2022/04/06 12:17:03;;;;;;;5.50;2.97;;;48.80;5.20;;;;;;5071229;28;20473;-74
2022/04/06 12:19:49;;;;;;;8.27;3.42;;;49.10;5.30;;;;;;5071432;28;20038;-75
2022/04/06 12:22:16;;;;;;;6.22;3.20;;;48.80;6.20;;;;;;5072577;28;20043;-74
2022/04/06 12:24:43;;;;;;;6.90;3.38;;;48.70;5.50;;;;;;5071789;28;20032;-74
2022/04/06 12:27:10;;;;;;;6.57;3.30;;;49.20;5.50;;;;;;5072158;28;20040;-75
2022/04/06 12:29:38;;;;;;;6.53;3.72;;;49.80;5.30;;;;;;5071722;28;20070;-75
2022/04/06 12:32:05;;;;;;;6.70;4.22;;;49.90;5.40;;;;;;5072528;28;20078;-74
2022/04/06 12:34:35;;;;;;;6.45;3.22;;;50.10;5.30;;;;;;5072694;28;20039;-74
2022/04/06 12:39:54;;;;;;;6.22;3.53;;;49.40;5.40;;;;;;5072900;28;20043;-74
2022/04/06 12:42:21;;;;;;;5.30;3.33;;;49.50;5.60;;;;;;5070990;28;20127;-74
2022/04/06 12:45:07;;;;;;;6.05;3.65;;;49.60;5.70;;;;;;5071270;28;20111;-74
2022/04/06 12:47:34;;;;;;;6.07;3.13;;;48.70;5.50;;;;;;5072653;28;20033;-74
2022/04/06 12:50:19;;;;;;;5.10;3.17;;;48.50;6.20;;;;;;5068381;28;20529;-74
2022/04/06 12:53:01;;;;;;;;;;;49.50;5.60;;;;;;5053358;28;20112;-74
2022/04/06 12:55:27;;;;;;;4.80;3.25;;;50.20;6.00;;;;;;5050700;28;19912;-74
2022/04/06 12:58:16;;;;;;;6.28;3.65;;;49.90;4.40;;;;;;5051250;28;20486;-74
2022/04/06 13:00:43;;;;;;;7.40;3.28;;;49.00;5.90;;;;;;5051905;28;20032;-74
2022/04/06 13:03:09;;;;;;;5.47;2.55;;;48.40;5.50;;;;;;5034490;28;20079;-74
2022/04/06 13:05:35;;;;;;;4.63;2.88;;;48.40;6.00;;;;;;5051821;28;20032;-74
2022/04/06 13:08:02;;;;;;;7.72;3.22;;;48.50;5.60;;;;;;5052157;28;20492;-75
2022/04/06 13:10:30;;;;;;;6.25;3.13;;;48.60;5.70;;;;;;5051650;28;20539;-74
2022/04/06 13:12:57;;;;;;;5.50;2.85;;;48.70;5.20;;;;;;5051132;28;20048;-74
2022/04/06 13:15:24;;;;;;;5.75;2.90;;;48.50;5.60;;;;;;5050455;28;20086;-74
2022/04/06 13:17:50;;;;;;;5.22;3.08;;;48.30;5.60;;;;;;5054445;28;20041;-74
2022/04/06 13:20:20;;;;;;;4.63;2.35;;;48.20;5.30;;;;;;5037636;28;20072;-74
2022/04/06 13:22:49;;;;;;;6.05;2.97;;;49.10;5.20;;;;;;5038273;28;20120;-74
2022/04/06 13:25:16;;;;;;;5.28;2.50;;;49.80;5.10;;;;;;5054272;28;20159;-74